sensor_id;sensor_type;location;lat;lon;timestamp;temperature;humidity
51007;DHT22;37034;47.886;-3.904;2023-06-05T00:01:36;20.40;69.60
51007;DHT22;37034;47.886;-3.904;2023-06-05T00:04:02;20.30;69.70
51007;DHT22;37034;47.886;-3.904;2023-06-05T00:06:28;20.30;69.50
51007;DHT22;37034;47.886;-3.904;2023-06-05T00:08:54;20.50;69.80
51007;DHT22;37034;47.886;-3.904;2023-06-05T00:11:20;20.50;69.10
51007;DHT22;37034;47.886;-3.904;2023-06-05T00:13:47;20.40;69.20
51007;DHT22;37034;47.886;-3.904;2023-06-05T00:16:13;20.30;69.40
51007;DHT22;37034;47.886;-3.904;2023-06-05T00:18:38;20.20;69.40
51007;DHT22;37034;47.886;-3.904;2023-06-05T00:21:04;20.20;70.00
51007;DHT22;37034;47.886;-3.904;2023-06-05T00:23:30;20.20;69.90
51007;DHT22;37034;47.886;-3.904;2023-06-05T00:25:57;20.30;69.70
51007;DHT22;37034;47.886;-3.904;2023-06-05T00:28:23;20.30;69.60
51007;DHT22;37034;47.886;-3.904;2023-06-05T00:30:49;20.30;69.60
51007;DHT22;37034;47.886;-3.904;2023-06-05T00:33:15;20.30;70.00
51007;DHT22;37034;47.886;-3.904;2023-06-05T00:35:43;20.10;69.60
51007;DHT22;37034;47.886;-3.904;2023-06-05T00:38:09;20.20;69.50
51007;DHT22;37034;47.886;-3.904;2023-06-05T00:40:34;20.10;70.00
51007;DHT22;37034;47.886;-3.904;2023-06-05T00:43:00;20.00;69.80
51007;DHT22;37034;47.886;-3.904;2023-06-05T00:45:26;20.10;69.80
51007;DHT22;37034;47.886;-3.904;2023-06-05T00:47:52;20.20;70.10
51007;DHT22;37034;47.886;-3.904;2023-06-05T00:50:18;20.20;69.80
51007;DHT22;37034;47.886;-3.904;2023-06-05T00:52:47;20.10;69.80
51007;DHT22;37034;47.886;-3.904;2023-06-05T00:55:14;20.10;70.10
51007;DHT22;37034;47.886;-3.904;2023-06-05T00:57:39;20.10;69.60
51007;DHT22;37034;47.886;-3.904;2023-06-05T01:00:09;20.10;69.90
51007;DHT22;37034;47.886;-3.904;2023-06-05T01:02:38;20.10;69.80
51007;DHT22;37034;47.886;-3.904;2023-06-05T01:05:05;20.10;70.10
51007;DHT22;37034;47.886;-3.904;2023-06-05T01:07:33;20.00;70.00
51007;DHT22;37034;47.886;-3.904;2023-06-05T01:10:00;19.90;69.90
51007;DHT22;37034;47.886;-3.904;2023-06-05T01:14:58;20.00;70.10
51007;DHT22;37034;47.886;-3.904;2023-06-05T01:17:27;19.90;70.10
51007;DHT22;37034;47.886;-3.904;2023-06-05T01:19:58;19.90;70.00
51007;DHT22;37034;47.886;-3.904;2023-06-05T01:22:32;20.00;69.70
51007;DHT22;37034;47.886;-3.904;2023-06-05T01:24:58;20.00;69.70
51007;DHT22;37034;47.886;-3.904;2023-06-05T01:30:04;19.90;69.90
51007;DHT22;37034;47.886;-3.904;2023-06-05T01:32:49;19.90;69.90
51007;DHT22;37034;47.886;-3.904;2023-06-05T01:35:20;19.90;69.70
51007;DHT22;37034;47.886;-3.904;2023-06-05T01:37:48;19.90;69.80
51007;DHT22;37034;47.886;-3.904;2023-06-05T01:40:17;19.80;69.90
51007;DHT22;37034;47.886;-3.904;2023-06-05T01:42:44;19.80;70.10
51007;DHT22;37034;47.886;-3.904;2023-06-05T01:45:11;19.90;69.90
51007;DHT22;37034;47.886;-3.904;2023-06-05T01:47:37;19.90;69.80
51007;DHT22;37034;47.886;-3.904;2023-06-05T01:50:05;19.80;69.90
51007;DHT22;37034;47.886;-3.904;2023-06-05T01:52:31;19.80;70.20
51007;DHT22;37034;47.886;-3.904;2023-06-05T01:54:57;19.80;69.90
51007;DHT22;37034;47.886;-3.904;2023-06-05T01:57:27;19.80;69.90
51007;DHT22;37034;47.886;-3.904;2023-06-05T01:59:53;19.80;70.00
51007;DHT22;37034;47.886;-3.904;2023-06-05T02:02:20;19.80;69.90
51007;DHT22;37034;47.886;-3.904;2023-06-05T02:04:47;19.80;69.90
51007;DHT22;37034;47.886;-3.904;2023-06-05T02:07:13;19.70;70.00
51007;DHT22;37034;47.886;-3.904;2023-06-05T02:09:40;19.70;70.10
51007;DHT22;37034;47.886;-3.904;2023-06-05T02:12:07;19.60;70.00
51007;DHT22;37034;47.886;-3.904;2023-06-05T02:14:33;19.70;70.20
51007;DHT22;37034;47.886;-3.904;2023-06-05T02:17:04;19.70;70.10
51007;DHT22;37034;47.886;-3.904;2023-06-05T02:19:33;19.60;70.30
51007;DHT22;37034;47.886;-3.904;2023-06-05T02:21:58;19.60;70.30
51007;DHT22;37034;47.886;-3.904;2023-06-05T02:24:24;19.70;70.10
51007;DHT22;37034;47.886;-3.904;2023-06-05T02:26:51;19.50;70.20
51007;DHT22;37034;47.886;-3.904;2023-06-05T02:29:16;19.40;70.30
51007;DHT22;37034;47.886;-3.904;2023-06-05T02:31:42;19.50;70.50
51007;DHT22;37034;47.886;-3.904;2023-06-05T02:34:09;19.60;70.20
51007;DHT22;37034;47.886;-3.904;2023-06-05T02:36:35;19.60;70.10
51007;DHT22;37034;47.886;-3.904;2023-06-05T02:39:02;19.60;70.10
51007;DHT22;37034;47.886;-3.904;2023-06-05T02:41:28;19.50;70.20
51007;DHT22;37034;47.886;-3.904;2023-06-05T02:43:54;19.40;70.30
51007;DHT22;37034;47.886;-3.904;2023-06-05T02:46:20;19.40;70.40
51007;DHT22;37034;47.886;-3.904;2023-06-05T02:48:47;19.30;70.70
51007;DHT22;37034;47.886;-3.904;2023-06-05T02:51:12;19.30;70.70
51007;DHT22;37034;47.886;-3.904;2023-06-05T02:53:38;19.30;70.60
51007;DHT22;37034;47.886;-3.904;2023-06-05T02:56:04;19.40;70.60
51007;DHT22;37034;47.886;-3.904;2023-06-05T02:58:30;19.40;70.40
51007;DHT22;37034;47.886;-3.904;2023-06-05T03:01:01;19.40;70.50
51007;DHT22;37034;47.886;-3.904;2023-06-05T03:03:31;19.30;70.70
51007;DHT22;37034;47.886;-3.904;2023-06-05T03:06:00;19.40;70.60
51007;DHT22;37034;47.886;-3.904;2023-06-05T03:08:36;19.40;70.40
51007;DHT22;37034;47.886;-3.904;2023-06-05T03:11:03;19.40;70.20
51007;DHT22;37034;47.886;-3.904;2023-06-05T03:13:30;19.40;70.10
51007;DHT22;37034;47.886;-3.904;2023-06-05T03:15:59;19.30;70.30
51007;DHT22;37034;47.886;-3.904;2023-06-05T03:18:30;19.30;70.30
51007;DHT22;37034;47.886;-3.904;2023-06-05T03:20:56;19.20;70.40
51007;DHT22;37034;47.886;-3.904;2023-06-05T03:23:26;19.20;70.20
51007;DHT22;37034;47.886;-3.904;2023-06-05T03:25:54;19.20;70.30
51007;DHT22;37034;47.886;-3.904;2023-06-05T03:28:21;19.20;70.30
51007;DHT22;37034;47.886;-3.904;2023-06-05T03:30:48;19.10;70.50
51007;DHT22;37034;47.886;-3.904;2023-06-05T03:33:14;19.00;70.70
51007;DHT22;37034;47.886;-3.904;2023-06-05T03:35:41;19.10;71.30
51007;DHT22;37034;47.886;-3.904;2023-06-05T03:38:08;19.10;70.50
51007;DHT22;37034;47.886;-3.904;2023-06-05T03:40:34;19.20;70.40
51007;DHT22;37034;47.886;-3.904;2023-06-05T03:43:00;19.30;70.20
51007;DHT22;37034;47.886;-3.904;2023-06-05T03:45:26;19.20;70.40
51007;DHT22;37034;47.886;-3.904;2023-06-05T03:47:53;19.30;70.30
51007;DHT22;37034;47.886;-3.904;2023-06-05T03:50:20;19.20;70.20
51007;DHT22;37034;47.886;-3.904;2023-06-05T03:52:47;19.10;70.40
51007;DHT22;37034;47.886;-3.904;2023-06-05T03:55:18;18.90;70.80
51007;DHT22;37034;47.886;-3.904;2023-06-05T03:57:47;18.90;71.10
51007;DHT22;37034;47.886;-3.904;2023-06-05T04:00:13;18.80;71.10
51007;DHT22;37034;47.886;-3.904;2023-06-05T04:02:40;18.90;71.00
51007;DHT22;37034;47.886;-3.904;2023-06-05T04:05:06;18.90;70.90
51007;DHT22;37034;47.886;-3.904;2023-06-05T04:07:31;18.80;70.90
51007;DHT22;37034;47.886;-3.904;2023-06-05T04:09:57;19.00;71.00
51007;DHT22;37034;47.886;-3.904;2023-06-05T04:12:23;18.90;71.00
51007;DHT22;37034;47.886;-3.904;2023-06-05T04:14:48;19.00;71.00
51007;DHT22;37034;47.886;-3.904;2023-06-05T04:17:14;19.00;70.90
51007;DHT22;37034;47.886;-3.904;2023-06-05T04:19:40;19.00;70.70
51007;DHT22;37034;47.886;-3.904;2023-06-05T04:22:06;18.90;70.80
51007;DHT22;37034;47.886;-3.904;2023-06-05T04:24:32;19.00;70.90
51007;DHT22;37034;47.886;-3.904;2023-06-05T04:26:58;18.90;70.80
51007;DHT22;37034;47.886;-3.904;2023-06-05T04:29:26;18.90;70.80
51007;DHT22;37034;47.886;-3.904;2023-06-05T04:31:52;18.90;70.70
51007;DHT22;37034;47.886;-3.904;2023-06-05T04:34:17;19.00;70.80
51007;DHT22;37034;47.886;-3.904;2023-06-05T04:36:44;19.00;70.90
51007;DHT22;37034;47.886;-3.904;2023-06-05T04:39:10;19.10;70.70
51007;DHT22;37034;47.886;-3.904;2023-06-05T04:41:43;19.00;70.60
51007;DHT22;37034;47.886;-3.904;2023-06-05T04:44:13;18.80;70.80
51007;DHT22;37034;47.886;-3.904;2023-06-05T04:46:42;18.80;71.10
51007;DHT22;37034;47.886;-3.904;2023-06-05T04:49:10;18.70;71.10
51007;DHT22;37034;47.886;-3.904;2023-06-05T04:51:36;18.80;71.10
51007;DHT22;37034;47.886;-3.904;2023-06-05T04:54:03;18.80;71.20
51007;DHT22;37034;47.886;-3.904;2023-06-05T04:56:28;18.90;71.00
51007;DHT22;37034;47.886;-3.904;2023-06-05T04:58:54;18.80;70.90
51007;DHT22;37034;47.886;-3.904;2023-06-05T05:01:20;18.90;70.90
51007;DHT22;37034;47.886;-3.904;2023-06-05T05:03:46;18.90;70.80
51007;DHT22;37034;47.886;-3.904;2023-06-05T05:06:16;18.90;70.80
51007;DHT22;37034;47.886;-3.904;2023-06-05T05:08:43;18.90;71.00
51007;DHT22;37034;47.886;-3.904;2023-06-05T05:11:12;19.00;71.00
51007;DHT22;37034;47.886;-3.904;2023-06-05T05:13:38;18.90;70.70
51007;DHT22;37034;47.886;-3.904;2023-06-05T05:16:04;19.00;71.00
51007;DHT22;37034;47.886;-3.904;2023-06-05T05:18:30;19.10;70.80
51007;DHT22;37034;47.886;-3.904;2023-06-05T05:20:56;18.90;70.80
51007;DHT22;37034;47.886;-3.904;2023-06-05T05:23:22;19.00;70.80
51007;DHT22;37034;47.886;-3.904;2023-06-05T05:25:48;18.80;71.10
51007;DHT22;37034;47.886;-3.904;2023-06-05T05:28:13;18.60;71.70
51007;DHT22;37034;47.886;-3.904;2023-06-05T05:30:39;18.60;72.50
51007;DHT22;37034;47.886;-3.904;2023-06-05T05:33:05;18.80;71.70
51007;DHT22;37034;47.886;-3.904;2023-06-05T05:35:30;18.90;71.40
51007;DHT22;37034;47.886;-3.904;2023-06-05T05:37:56;18.90;71.50
51007;DHT22;37034;47.886;-3.904;2023-06-05T05:40:22;19.10;71.40
51007;DHT22;37034;47.886;-3.904;2023-06-05T05:42:48;19.20;71.20
51007;DHT22;37034;47.886;-3.904;2023-06-05T05:45:13;19.30;71.30
51007;DHT22;37034;47.886;-3.904;2023-06-05T05:47:39;19.30;71.10
51007;DHT22;37034;47.886;-3.904;2023-06-05T05:50:05;19.40;71.10
51007;DHT22;37034;47.886;-3.904;2023-06-05T05:52:32;19.40;70.90
51007;DHT22;37034;47.886;-3.904;2023-06-05T05:54:58;19.50;70.80
51007;DHT22;37034;47.886;-3.904;2023-06-05T05:57:25;19.50;70.60
51007;DHT22;37034;47.886;-3.904;2023-06-05T05:59:51;19.40;71.30
51007;DHT22;37034;47.886;-3.904;2023-06-05T06:02:16;19.60;71.30
51007;DHT22;37034;47.886;-3.904;2023-06-05T06:04:42;19.70;70.60
51007;DHT22;37034;47.886;-3.904;2023-06-05T06:07:11;19.80;71.10
51007;DHT22;37034;47.886;-3.904;2023-06-05T06:09:37;20.00;70.80
51007;DHT22;37034;47.886;-3.904;2023-06-05T06:12:03;20.00;70.40
51007;DHT22;37034;47.886;-3.904;2023-06-05T06:14:32;20.00;70.50
51007;DHT22;37034;47.886;-3.904;2023-06-05T06:16:57;20.10;70.40
51007;DHT22;37034;47.886;-3.904;2023-06-05T06:19:24;20.30;70.70
51007;DHT22;37034;47.886;-3.904;2023-06-05T06:21:50;20.40;69.90
51007;DHT22;37034;47.886;-3.904;2023-06-05T06:24:18;20.50;69.70
51007;DHT22;37034;47.886;-3.904;2023-06-05T06:26:48;20.60;69.40
51007;DHT22;37034;47.886;-3.904;2023-06-05T06:29:24;20.60;69.70
51007;DHT22;37034;47.886;-3.904;2023-06-05T06:31:53;20.80;69.50
51007;DHT22;37034;47.886;-3.904;2023-06-05T06:34:18;20.90;69.10
51007;DHT22;37034;47.886;-3.904;2023-06-05T06:36:44;20.90;68.30
51007;DHT22;37034;47.886;-3.904;2023-06-05T06:39:12;21.00;69.10
51007;DHT22;37034;47.886;-3.904;2023-06-05T06:41:38;21.10;69.20
51007;DHT22;37034;47.886;-3.904;2023-06-05T06:44:04;21.30;68.40
51007;DHT22;37034;47.886;-3.904;2023-06-05T06:46:31;21.30;68.00
51007;DHT22;37034;47.886;-3.904;2023-06-05T06:48:57;21.40;68.60
51007;DHT22;37034;47.886;-3.904;2023-06-05T06:51:23;21.50;68.60
51007;DHT22;37034;47.886;-3.904;2023-06-05T06:53:49;21.50;68.00
51007;DHT22;37034;47.886;-3.904;2023-06-05T06:56:15;21.70;68.90
51007;DHT22;37034;47.886;-3.904;2023-06-05T06:58:42;21.80;68.50
51007;DHT22;37034;47.886;-3.904;2023-06-05T07:01:08;21.90;67.50
51007;DHT22;37034;47.886;-3.904;2023-06-05T07:03:34;22.00;68.00
51007;DHT22;37034;47.886;-3.904;2023-06-05T07:06:01;22.30;67.20
51007;DHT22;37034;47.886;-3.904;2023-06-05T07:08:26;22.30;67.30
51007;DHT22;37034;47.886;-3.904;2023-06-05T07:10:52;22.40;66.20
51007;DHT22;37034;47.886;-3.904;2023-06-05T07:13:21;22.40;66.50
51007;DHT22;37034;47.886;-3.904;2023-06-05T07:15:48;22.50;66.40
51007;DHT22;37034;47.886;-3.904;2023-06-05T07:18:13;22.60;65.80
51007;DHT22;37034;47.886;-3.904;2023-06-05T07:20:39;22.60;65.90
51007;DHT22;37034;47.886;-3.904;2023-06-05T07:23:06;22.80;66.30
51007;DHT22;37034;47.886;-3.904;2023-06-05T07:25:31;22.90;65.30
51007;DHT22;37034;47.886;-3.904;2023-06-05T07:27:57;22.80;65.80
51007;DHT22;37034;47.886;-3.904;2023-06-05T07:30:25;23.00;66.10
51007;DHT22;37034;47.886;-3.904;2023-06-05T07:32:52;23.20;65.00
51007;DHT22;37034;47.886;-3.904;2023-06-05T07:35:17;23.40;64.80
51007;DHT22;37034;47.886;-3.904;2023-06-05T07:37:43;23.40;63.40
51007;DHT22;37034;47.886;-3.904;2023-06-05T07:40:09;23.20;62.80
51007;DHT22;37034;47.886;-3.904;2023-06-05T07:42:34;22.90;64.00
51007;DHT22;37034;47.886;-3.904;2023-06-05T07:45:00;23.00;64.70
51007;DHT22;37034;47.886;-3.904;2023-06-05T07:47:27;23.20;63.90
51007;DHT22;37034;47.886;-3.904;2023-06-05T07:50:00;23.30;64.70
51007;DHT22;37034;47.886;-3.904;2023-06-05T07:52:30;23.50;64.50
51007;DHT22;37034;47.886;-3.904;2023-06-05T07:54:56;23.70;64.20
51007;DHT22;37034;47.886;-3.904;2023-06-05T07:57:22;23.80;64.30
51007;DHT22;37034;47.886;-3.904;2023-06-05T07:59:50;23.80;63.50
51007;DHT22;37034;47.886;-3.904;2023-06-05T08:02:17;23.80;64.40
51007;DHT22;37034;47.886;-3.904;2023-06-05T08:04:43;23.90;63.40
51007;DHT22;37034;47.886;-3.904;2023-06-05T08:07:09;23.80;63.60
51007;DHT22;37034;47.886;-3.904;2023-06-05T08:09:35;24.10;63.70
51007;DHT22;37034;47.886;-3.904;2023-06-05T08:12:05;24.30;62.80
51007;DHT22;37034;47.886;-3.904;2023-06-05T08:14:31;24.40;63.80
51007;DHT22;37034;47.886;-3.904;2023-06-05T08:16:57;24.70;62.90
51007;DHT22;37034;47.886;-3.904;2023-06-05T08:19:23;24.70;61.90
51007;DHT22;37034;47.886;-3.904;2023-06-05T08:21:52;24.90;61.70
51007;DHT22;37034;47.886;-3.904;2023-06-05T08:24:20;24.70;60.60
51007;DHT22;37034;47.886;-3.904;2023-06-05T08:26:45;24.60;61.50
51007;DHT22;37034;47.886;-3.904;2023-06-05T08:29:11;24.60;62.60
51007;DHT22;37034;47.886;-3.904;2023-06-05T08:31:37;24.90;62.70
51007;DHT22;37034;47.886;-3.904;2023-06-05T08:34:04;25.20;62.70
51007;DHT22;37034;47.886;-3.904;2023-06-05T08:36:31;25.30;61.20
51007;DHT22;37034;47.886;-3.904;2023-06-05T08:38:58;25.10;60.60
51007;DHT22;37034;47.886;-3.904;2023-06-05T08:41:25;25.20;61.90
51007;DHT22;37034;47.886;-3.904;2023-06-05T08:43:51;25.40;61.70
51007;DHT22;37034;47.886;-3.904;2023-06-05T08:46:17;25.60;61.00
51007;DHT22;37034;47.886;-3.904;2023-06-05T08:48:46;25.90;62.10
51007;DHT22;37034;47.886;-3.904;2023-06-05T08:51:14;25.90;60.60
51007;DHT22;37034;47.886;-3.904;2023-06-05T08:53:42;25.80;59.20
51007;DHT22;37034;47.886;-3.904;2023-06-05T08:56:10;25.80;60.00
51007;DHT22;37034;47.886;-3.904;2023-06-05T08:58:36;26.10;61.10
51007;DHT22;37034;47.886;-3.904;2023-06-05T09:01:02;26.30;59.60
51007;DHT22;37034;47.886;-3.904;2023-06-05T09:03:28;26.40;59.80
51007;DHT22;37034;47.886;-3.904;2023-06-05T09:05:54;26.40;58.00
51007;DHT22;37034;47.886;-3.904;2023-06-05T09:08:29;26.00;58.50
51007;DHT22;37034;47.886;-3.904;2023-06-05T09:13:45;26.40;58.90
51007;DHT22;37034;47.886;-3.904;2023-06-05T09:16:11;26.60;59.20
51007;DHT22;37034;47.886;-3.904;2023-06-05T09:18:54;26.50;58.70
51007;DHT22;37034;47.886;-3.904;2023-06-05T09:21:21;26.70;59.10
51007;DHT22;37034;47.886;-3.904;2023-06-05T09:23:47;27.00;58.20
51007;DHT22;37034;47.886;-3.904;2023-06-05T09:26:12;27.10;58.40
51007;DHT22;37034;47.886;-3.904;2023-06-05T09:28:53;27.10;55.70
51007;DHT22;37034;47.886;-3.904;2023-06-05T09:31:20;27.10;57.10
51007;DHT22;37034;47.886;-3.904;2023-06-05T09:33:54;27.40;58.20
51007;DHT22;37034;47.886;-3.904;2023-06-05T09:36:20;27.60;56.80
51007;DHT22;37034;47.886;-3.904;2023-06-05T09:38:46;27.70;57.00
51007;DHT22;37034;47.886;-3.904;2023-06-05T09:41:13;27.80;57.30
51007;DHT22;37034;47.886;-3.904;2023-06-05T09:43:46;27.40;56.00
51007;DHT22;37034;47.886;-3.904;2023-06-05T09:46:13;27.30;56.50
51007;DHT22;37034;47.886;-3.904;2023-06-05T09:48:39;27.40;56.80
51007;DHT22;37034;47.886;-3.904;2023-06-05T09:53:44;27.90;56.20
51007;DHT22;37034;47.886;-3.904;2023-06-05T09:56:12;28.00;56.50
51007;DHT22;37034;47.886;-3.904;2023-06-05T10:01:11;28.00;54.50
51007;DHT22;37034;47.886;-3.904;2023-06-05T10:03:40;28.00;55.30
51007;DHT22;37034;47.886;-3.904;2023-06-05T10:06:08;28.00;55.80
51007;DHT22;37034;47.886;-3.904;2023-06-05T10:08:34;28.10;56.10
51007;DHT22;37034;47.886;-3.904;2023-06-05T10:11:01;28.20;55.80
51007;DHT22;37034;47.886;-3.904;2023-06-05T10:13:28;28.40;55.80
51007;DHT22;37034;47.886;-3.904;2023-06-05T10:15:55;28.60;54.30
51007;DHT22;37034;47.886;-3.904;2023-06-05T10:18:22;28.70;55.80
51007;DHT22;37034;47.886;-3.904;2023-06-05T10:20:48;28.80;54.40
51007;DHT22;37034;47.886;-3.904;2023-06-05T10:23:17;28.90;54.00
51007;DHT22;37034;47.886;-3.904;2023-06-05T10:25:45;28.90;52.70
51007;DHT22;37034;47.886;-3.904;2023-06-05T10:31:06;29.00;53.40
51007;DHT22;37034;47.886;-3.904;2023-06-05T10:39:11;29.00;52.70
51007;DHT22;37034;47.886;-3.904;2023-06-05T10:41:37;28.90;51.80
51007;DHT22;37034;47.886;-3.904;2023-06-05T10:44:04;28.80;52.40
51007;DHT22;37034;47.886;-3.904;2023-06-05T10:46:31;29.00;53.40
51007;DHT22;37034;47.886;-3.904;2023-06-05T10:49:14;29.10;51.90
51007;DHT22;37034;47.886;-3.904;2023-06-05T10:51:52;29.40;52.70
51007;DHT22;37034;47.886;-3.904;2023-06-05T10:57:03;29.80;52.30
51007;DHT22;37034;47.886;-3.904;2023-06-05T10:59:39;29.80;51.20
51007;DHT22;37034;47.886;-3.904;2023-06-05T11:07:28;30.00;52.60
51007;DHT22;37034;47.886;-3.904;2023-06-05T11:10:05;30.20;51.30
51007;DHT22;37034;47.886;-3.904;2023-06-05T11:17:36;30.50;51.40
51007;DHT22;37034;47.886;-3.904;2023-06-05T11:20:05;30.40;50.40
51007;DHT22;37034;47.886;-3.904;2023-06-05T11:22:33;30.40;51.80
51007;DHT22;37034;47.886;-3.904;2023-06-05T11:28:05;30.30;50.70
51007;DHT22;37034;47.886;-3.904;2023-06-05T11:30:40;30.40;50.60
51007;DHT22;37034;47.886;-3.904;2023-06-05T11:33:15;30.50;51.20
51007;DHT22;37034;47.886;-3.904;2023-06-05T11:35:43;30.30;50.00
51007;DHT22;37034;47.886;-3.904;2023-06-05T11:40:37;30.60;50.20
51007;DHT22;37034;47.886;-3.904;2023-06-05T11:43:04;30.60;49.70
51007;DHT22;37034;47.886;-3.904;2023-06-05T11:45:31;30.60;50.00
51007;DHT22;37034;47.886;-3.904;2023-06-05T11:48:10;30.60;48.10
51007;DHT22;37034;47.886;-3.904;2023-06-05T11:50:38;30.50;49.30
51007;DHT22;37034;47.886;-3.904;2023-06-05T11:53:10;30.70;48.80
51007;DHT22;37034;47.886;-3.904;2023-06-05T11:55:37;30.70;48.30
51007;DHT22;37034;47.886;-3.904;2023-06-05T11:58:28;30.70;49.30
51007;DHT22;37034;47.886;-3.904;2023-06-05T12:01:08;30.80;49.70
51007;DHT22;37034;47.886;-3.904;2023-06-05T12:03:40;31.00;50.00
51007;DHT22;37034;47.886;-3.904;2023-06-05T12:06:07;31.20;49.50
51007;DHT22;37034;47.886;-3.904;2023-06-05T12:08:33;31.20;49.30
51007;DHT22;37034;47.886;-3.904;2023-06-05T12:11:01;31.20;48.80
51007;DHT22;37034;47.886;-3.904;2023-06-05T12:13:49;31.10;48.30
51007;DHT22;37034;47.886;-3.904;2023-06-05T12:16:16;31.20;49.20
51007;DHT22;37034;47.886;-3.904;2023-06-05T12:18:43;31.40;49.00
51007;DHT22;37034;47.886;-3.904;2023-06-05T12:21:25;31.50;50.20
51007;DHT22;37034;47.886;-3.904;2023-06-05T12:24:00;31.70;49.00
51007;DHT22;37034;47.886;-3.904;2023-06-05T12:26:26;31.90;48.20
51007;DHT22;37034;47.886;-3.904;2023-06-05T12:29:05;31.70;46.60
51007;DHT22;37034;47.886;-3.904;2023-06-05T12:31:35;31.50;48.20
51007;DHT22;37034;47.886;-3.904;2023-06-05T12:34:03;31.60;47.90
51007;DHT22;37034;47.886;-3.904;2023-06-05T12:36:30;31.70;48.30
51007;DHT22;37034;47.886;-3.904;2023-06-05T12:39:02;31.80;48.30
51007;DHT22;37034;47.886;-3.904;2023-06-05T12:41:29;32.00;48.40
51007;DHT22;37034;47.886;-3.904;2023-06-05T12:44:01;32.20;48.40
51007;DHT22;37034;47.886;-3.904;2023-06-05T12:46:33;32.30;47.20
51007;DHT22;37034;47.886;-3.904;2023-06-05T12:49:02;32.30;47.50
51007;DHT22;37034;47.886;-3.904;2023-06-05T12:51:29;32.30;48.20
51007;DHT22;37034;47.886;-3.904;2023-06-05T12:53:55;32.20;46.70
51007;DHT22;37034;47.886;-3.904;2023-06-05T12:56:22;32.20;47.20
51007;DHT22;37034;47.886;-3.904;2023-06-05T12:58:57;32.30;48.10
51007;DHT22;37034;47.886;-3.904;2023-06-05T13:01:24;32.30;47.10
51007;DHT22;37034;47.886;-3.904;2023-06-05T13:03:51;32.30;46.80
51007;DHT22;37034;47.886;-3.904;2023-06-05T13:06:17;32.20;46.60
51007;DHT22;37034;47.886;-3.904;2023-06-05T13:08:43;32.10;46.00
51007;DHT22;37034;47.886;-3.904;2023-06-05T13:11:08;32.00;46.20
51007;DHT22;37034;47.886;-3.904;2023-06-05T13:13:36;32.10;46.40
51007;DHT22;37034;47.886;-3.904;2023-06-05T13:16:02;32.10;45.60
51007;DHT22;37034;47.886;-3.904;2023-06-05T13:18:30;32.10;45.50
51007;DHT22;37034;47.886;-3.904;2023-06-05T13:20:56;32.20;45.70
51007;DHT22;37034;47.886;-3.904;2023-06-05T13:23:21;32.20;45.70
51007;DHT22;37034;47.886;-3.904;2023-06-05T13:25:47;32.30;45.90
51007;DHT22;37034;47.886;-3.904;2023-06-05T13:28:13;32.20;45.60
51007;DHT22;37034;47.886;-3.904;2023-06-05T13:30:38;32.30;45.10
51007;DHT22;37034;47.886;-3.904;2023-06-05T13:33:04;32.20;45.50
51007;DHT22;37034;47.886;-3.904;2023-06-05T13:35:30;32.30;46.40
51007;DHT22;37034;47.886;-3.904;2023-06-05T13:37:55;32.40;46.20
51007;DHT22;37034;47.886;-3.904;2023-06-05T13:40:21;32.50;46.80
51007;DHT22;37034;47.886;-3.904;2023-06-05T13:42:47;32.40;44.60
51007;DHT22;37034;47.886;-3.904;2023-06-05T13:45:13;32.40;46.20
51007;DHT22;37034;47.886;-3.904;2023-06-05T13:47:39;32.40;46.40
51007;DHT22;37034;47.886;-3.904;2023-06-05T13:50:05;32.60;46.00
51007;DHT22;37034;47.886;-3.904;2023-06-05T13:52:31;32.40;45.30
51007;DHT22;37034;47.886;-3.904;2023-06-05T13:54:57;32.30;45.60
51007;DHT22;37034;47.886;-3.904;2023-06-05T13:57:23;32.30;46.70
51007;DHT22;37034;47.886;-3.904;2023-06-05T13:59:48;32.30;45.60
51007;DHT22;37034;47.886;-3.904;2023-06-05T14:02:14;32.20;44.90
51007;DHT22;37034;47.886;-3.904;2023-06-05T14:04:40;32.20;45.50
51007;DHT22;37034;47.886;-3.904;2023-06-05T14:07:06;32.30;46.20
51007;DHT22;37034;47.886;-3.904;2023-06-05T14:09:31;32.40;46.70
51007;DHT22;37034;47.886;-3.904;2023-06-05T14:11:58;32.50;45.30
51007;DHT22;37034;47.886;-3.904;2023-06-05T14:14:24;32.40;45.70
51007;DHT22;37034;47.886;-3.904;2023-06-05T14:16:50;32.00;45.70
51007;DHT22;37034;47.886;-3.904;2023-06-05T14:19:17;32.10;46.70
51007;DHT22;37034;47.886;-3.904;2023-06-05T14:21:43;32.20;47.30
51007;DHT22;37034;47.886;-3.904;2023-06-05T14:24:08;32.10;47.10
51007;DHT22;37034;47.886;-3.904;2023-06-05T14:26:35;32.20;47.50
51007;DHT22;37034;47.886;-3.904;2023-06-05T14:29:02;32.20;47.40
51007;DHT22;37034;47.886;-3.904;2023-06-05T14:31:28;32.20;46.80
51007;DHT22;37034;47.886;-3.904;2023-06-05T14:33:53;32.10;47.60
51007;DHT22;37034;47.886;-3.904;2023-06-05T14:36:19;32.10;47.90
51007;DHT22;37034;47.886;-3.904;2023-06-05T14:38:45;32.10;47.30
51007;DHT22;37034;47.886;-3.904;2023-06-05T14:41:11;31.90;47.60
51007;DHT22;37034;47.886;-3.904;2023-06-05T14:43:37;31.70;46.70
51007;DHT22;37034;47.886;-3.904;2023-06-05T14:46:03;31.70;47.50
51007;DHT22;37034;47.886;-3.904;2023-06-05T14:48:29;31.70;47.00
51007;DHT22;37034;47.886;-3.904;2023-06-05T14:50:55;31.70;46.40
51007;DHT22;37034;47.886;-3.904;2023-06-05T14:53:21;31.40;46.80
51007;DHT22;37034;47.886;-3.904;2023-06-05T14:55:47;31.30;46.20
51007;DHT22;37034;47.886;-3.904;2023-06-05T14:58:13;31.30;46.50
51007;DHT22;37034;47.886;-3.904;2023-06-05T15:00:39;31.50;47.30
51007;DHT22;37034;47.886;-3.904;2023-06-05T15:03:04;31.60;47.50
51007;DHT22;37034;47.886;-3.904;2023-06-05T15:05:31;31.60;46.60
51007;DHT22;37034;47.886;-3.904;2023-06-05T15:07:57;31.60;46.20
51007;DHT22;37034;47.886;-3.904;2023-06-05T15:10:24;31.50;46.40
51007;DHT22;37034;47.886;-3.904;2023-06-05T15:12:50;31.30;45.80
51007;DHT22;37034;47.886;-3.904;2023-06-05T15:15:21;31.20;45.60
51007;DHT22;37034;47.886;-3.904;2023-06-05T15:17:48;31.10;45.40
51007;DHT22;37034;47.886;-3.904;2023-06-05T15:20:14;31.00;45.20
51007;DHT22;37034;47.886;-3.904;2023-06-05T15:22:40;30.70;45.20
51007;DHT22;37034;47.886;-3.904;2023-06-05T15:25:06;30.40;45.20
51007;DHT22;37034;47.886;-3.904;2023-06-05T15:27:32;30.50;45.40
51007;DHT22;37034;47.886;-3.904;2023-06-05T15:29:59;30.50;45.90
51007;DHT22;37034;47.886;-3.904;2023-06-05T15:32:26;30.40;45.40
51007;DHT22;37034;47.886;-3.904;2023-06-05T15:34:52;30.40;46.00
51007;DHT22;37034;47.886;-3.904;2023-06-05T15:37:17;30.70;46.20
51007;DHT22;37034;47.886;-3.904;2023-06-05T15:39:43;31.00;46.70
51007;DHT22;37034;47.886;-3.904;2023-06-05T15:42:08;30.90;45.40
51007;DHT22;37034;47.886;-3.904;2023-06-05T15:44:37;31.00;45.70
51007;DHT22;37034;47.886;-3.904;2023-06-05T15:47:05;30.90;44.10
51007;DHT22;37034;47.886;-3.904;2023-06-05T15:49:31;30.70;44.90
51007;DHT22;37034;47.886;-3.904;2023-06-05T15:51:57;30.40;44.60
51007;DHT22;37034;47.886;-3.904;2023-06-05T15:54:22;30.40;44.30
51007;DHT22;37034;47.886;-3.904;2023-06-05T15:57:01;30.40;44.40